Coeur d'Alene, ID (83814)

8:32 PM PDT on August 22, 2014 (GMT -0700)
Downtown Coeur d'Alene | Change Station
CLOSE
Current Station
Personal Weather Station
Location: Coeur d'Alene, ID
Elevation: 2175 ft
Nearby Weather Stations

Elev 2175 ft 47.67 °N, 116.79 °W | Updated 16 seconds ago

Clear
Clear
68.2 °F
Feels Like 68.2 °F
N
4.5
Wind Variable Wind from NW
Gusts 5.4 mph

Today
High -- | Low -- °F
--% Chance of Precip.
Yesterday
High -- | Low -- °F
Precip. -- in
5:52 AM 7:46 PM
Waning Crescent, 5% visible
Pressure 30.05 in
Visibility 10.0 miles
Clouds Clear
Dew Point 48 °F
Humidity 48%
Rainfall 0.00 in
Snow Depth Not available.
UV 0 out of 12
Pollen 6.60 out of 12
Air Quality Not available.
Flu Activity Not available.
METAR KCOE 230315Z AUTO 02013KT 10SM CLR 17/09 A3005 RMK AO1

More Conditions Fewer Conditions

Pressure 30.05 in
Visibility 10.0 miles
Clouds Clear
Dew Point 48 °F
Humidity 48%
Rainfall 0.00 in
Snow Depth Not available.
UV 0 out of 12
Pollen 6.60 out of 12
Air Quality Not available.
Flu Activity Not available.
METAR KCOE 230315Z AUTO 02013KT 10SM CLR 17/09 A3005 RMK AO1

More Conditions Fewer Conditions

10-Day Weather Forecast

Almanac

Astronomy

Aug. 22, 2014 Rise Set
Actual Time 5:52 AM PDT 7:46 PM PDT
Civil Twilight 5:19 AM PDT 8:19 PM PDT
Nautical Twilight 4:38 AM PDT 9:00 PM PDT
Astronomical Twilight 3:53 AM PDT 9:44 PM PDT
Moon 3:13 AM PDT (8/22) 6:01 PM PDT (8/22)
Length of Visible Light 15h 00m
Length of Day
13h 54m
Tomorrow will be 3m 13s shorter.
Waning Crescent, 5% of the Moon is Illuminated
Today
Waning Crescent
Aug 25
New
Sep 2
First Quarter
Sep 8
Full
Sep 15
Last Quarter

Today's Extremes

State Highs State Lows

Community

WunderPhotos

Upload Photos

1,746,352 photos uploaded!

WunderBlogs® & News

Nearby

Snow Depth

Station Depth Elevation
Mosquito Ridge 0 in 5200 ft
Mica Creek 1 in 4750 ft
Humboldt Gulch 2 in 4250 ft
Lookout 0 in 5140 ft
Bear Mountain 0 in 5400 ft

Earthquake Activity

City Distance Mag. Time & Date
No recent earthquake activity has been reported nearby.
Minimum magnitude displayed is 2.5.

Coastal Water Temperatures

Place Temperature
No Stations Reporting

Nearby Weather Stations